sensor_id;sensor_type;location;lat;lon;timestamp;pressure;altitude;pressure_sealevel;temperature;humidity
65173;BME280;51758;52.218;5.172;2023-02-28T00:01:14;102391.81;;;2.04;100.00
65173;BME280;51758;52.218;5.172;2023-02-28T00:03:42;102472.50;;;2.52;100.00
65173;BME280;51758;52.218;5.172;2023-02-28T00:06:10;102397.81;;;2.05;100.00
65173;BME280;51758;52.218;5.172;2023-02-28T00:08:38;102461.69;;;2.45;100.00
65173;BME280;51758;52.218;5.172;2023-02-28T00:11:08;102467.97;;;2.56;100.00
65173;BME280;51758;52.218;5.172;2023-02-28T00:13:38;102446.22;;;2.45;100.00
65173;BME280;51758;52.218;5.172;2023-02-28T00:16:09;102468.47;;;2.62;100.00
65173;BME280;51758;52.218;5.172;2023-02-28T00:18:37;102473.34;;;2.67;100.00
65173;BME280;51758;52.218;5.172;2023-02-28T00:21:06;102474.19;;;2.67;100.00
65173;BME280;51758;52.218;5.172;2023-02-28T00:23:34;102425.97;;;2.39;100.00
65173;BME280;51758;52.218;5.172;2023-02-28T00:26:02;102450.69;;;2.58;100.00
65173;BME280;51758;52.218;5.172;2023-02-28T00:28:30;102471.06;;;2.62;100.00
65173;BME280;51758;52.218;5.172;2023-02-28T00:30:58;102466.28;;;2.70;100.00
65173;BME280;51758;52.218;5.172;2023-02-28T00:33:28;102464.16;;;2.63;100.00
65173;BME280;51758;52.218;5.172;2023-02-28T00:36:04;102455.63;;;2.76;100.00
65173;BME280;51758;52.218;5.172;2023-02-28T00:38:32;102456.09;;;2.83;100.00
65173;BME280;51758;52.218;5.172;2023-02-28T00:41:00;102468.91;;;2.84;100.00
65173;BME280;51758;52.218;5.172;2023-02-28T00:43:32;102474.91;;;2.85;100.00
65173;BME280;51758;52.218;5.172;2023-02-28T00:46:00;102470.13;;;2.93;100.00
65173;BME280;51758;52.218;5.172;2023-02-28T00:48:29;102437.47;;;2.64;100.00
65173;BME280;51758;52.218;5.172;2023-02-28T00:50:57;102488.19;;;2.93;100.00
65173;BME280;51758;52.218;5.172;2023-02-28T00:53:25;102460.59;;;2.79;100.00
65173;BME280;51758;52.218;5.172;2023-02-28T00:55:53;102493.16;;;2.96;100.00
65173;BME280;51758;52.218;5.172;2023-02-28T00:58:21;102492.16;;;2.99;100.00
65173;BME280;51758;52.218;5.172;2023-02-28T01:00:48;102494.50;;;3.03;100.00
65173;BME280;51758;52.218;5.172;2023-02-28T01:03:17;102483.50;;;3.00;100.00
65173;BME280;51758;52.218;5.172;2023-02-28T01:05:46;102501.28;;;3.04;100.00
65173;BME280;51758;52.218;5.172;2023-02-28T01:08:14;102458.13;;;2.78;100.00
65173;BME280;51758;52.218;5.172;2023-02-28T01:10:42;102514.09;;;3.06;100.00
65173;BME280;51758;52.218;5.172;2023-02-28T01:13:11;102506.56;;;3.03;100.00
65173;BME280;51758;52.218;5.172;2023-02-28T01:15:41;102515.84;;;3.05;100.00
65173;BME280;51758;52.218;5.172;2023-02-28T01:18:10;102510.34;;;3.11;100.00
65173;BME280;51758;52.218;5.172;2023-02-28T01:20:38;102519.69;;;3.14;100.00
65173;BME280;51758;52.218;5.172;2023-02-28T01:23:07;102523.09;;;3.14;100.00
65173;BME280;51758;52.218;5.172;2023-02-28T01:25:35;102513.59;;;3.15;100.00
65173;BME280;51758;52.218;5.172;2023-02-28T01:28:04;102512.38;;;3.20;100.00
65173;BME280;51758;52.218;5.172;2023-02-28T01:30:32;102501.69;;;3.12;100.00
65173;BME280;51758;52.218;5.172;2023-02-28T01:33:00;102505.75;;;3.16;100.00
65173;BME280;51758;52.218;5.172;2023-02-28T01:35:28;102490.97;;;3.04;100.00
65173;BME280;51758;52.218;5.172;2023-02-28T01:37:56;102496.91;;;3.20;100.00
65173;BME280;51758;52.218;5.172;2023-02-28T01:40:39;102489.34;;;3.17;100.00
65173;BME280;51758;52.218;5.172;2023-02-28T01:43:19;102478.56;;;3.11;100.00
65173;BME280;51758;52.218;5.172;2023-02-28T01:45:47;102495.06;;;3.22;100.00
65173;BME280;51758;52.218;5.172;2023-02-28T01:48:15;102488.16;;;3.23;100.00
65173;BME280;51758;52.218;5.172;2023-02-28T01:50:45;102500.06;;;3.26;100.00
65173;BME280;51758;52.218;5.172;2023-02-28T01:53:17;102496.66;;;3.25;100.00
65173;BME280;51758;52.218;5.172;2023-02-28T01:55:48;102500.88;;;3.26;100.00
65173;BME280;51758;52.218;5.172;2023-02-28T01:58:18;102495.25;;;3.19;100.00
65173;BME280;51758;52.218;5.172;2023-02-28T02:00:46;102496.72;;;3.23;100.00
65173;BME280;51758;52.218;5.172;2023-02-28T02:03:16;102485.41;;;3.26;100.00
65173;BME280;51758;52.218;5.172;2023-02-28T02:05:45;102443.50;;;2.93;100.00
65173;BME280;51758;52.218;5.172;2023-02-28T02:08:17;102483.66;;;3.27;100.00
65173;BME280;51758;52.218;5.172;2023-02-28T02:10:49;102484.19;;;3.32;100.00
65173;BME280;51758;52.218;5.172;2023-02-28T02:13:29;102465.94;;;3.20;100.00
65173;BME280;51758;52.218;5.172;2023-02-28T02:16:06;102469.91;;;3.26;100.00
65173;BME280;51758;52.218;5.172;2023-02-28T02:18:39;102472.31;;;3.29;100.00
65173;BME280;51758;52.218;5.172;2023-02-28T02:24:38;102463.91;;;3.26;100.00
65173;BME280;51758;52.218;5.172;2023-02-28T02:27:23;102460.22;;;3.30;100.00
65173;BME280;51758;52.218;5.172;2023-02-28T02:30:07;102453.69;;;3.24;100.00
65173;BME280;51758;52.218;5.172;2023-02-28T02:33:01;102449.19;;;3.28;100.00
65173;BME280;51758;52.218;5.172;2023-02-28T02:35:34;102354.66;;;2.68;100.00
65173;BME280;51758;52.218;5.172;2023-02-28T02:38:11;102461.69;;;3.34;100.00
65173;BME280;51758;52.218;5.172;2023-02-28T02:40:46;102421.75;;;2.97;100.00
65173;BME280;51758;52.218;5.172;2023-02-28T02:43:17;102462.34;;;3.37;100.00
65173;BME280;51758;52.218;5.172;2023-02-28T02:45:49;102460.13;;;3.31;100.00
65173;BME280;51758;52.218;5.172;2023-02-28T02:48:21;102453.69;;;3.38;100.00
65173;BME280;51758;52.218;5.172;2023-02-28T02:50:55;102452.69;;;3.41;100.00
65173;BME280;51758;52.218;5.172;2023-02-28T02:53:26;102301.03;;;2.45;100.00
65173;BME280;51758;52.218;5.172;2023-02-28T02:55:58;102458.75;;;3.40;100.00
65173;BME280;51758;52.218;5.172;2023-02-28T02:58:30;102448.25;;;3.29;100.00
65173;BME280;51758;52.218;5.172;2023-02-28T03:01:01;102448.13;;;3.30;100.00
65173;BME280;51758;52.218;5.172;2023-02-28T03:03:31;102444.03;;;3.42;100.00
65173;BME280;51758;52.218;5.172;2023-02-28T03:06:02;102439.56;;;3.44;100.00
65173;BME280;51758;52.218;5.172;2023-02-28T03:08:35;102452.22;;;3.48;100.00
65173;BME280;51758;52.218;5.172;2023-02-28T03:11:04;102452.56;;;3.42;100.00
65173;BME280;51758;52.218;5.172;2023-02-28T03:13:52;102435.72;;;3.37;100.00
65173;BME280;51758;52.218;5.172;2023-02-28T03:16:34;102423.44;;;3.40;100.00
65173;BME280;51758;52.218;5.172;2023-02-28T03:19:21;102414.66;;;3.43;100.00
65173;BME280;51758;52.218;5.172;2023-02-28T03:22:19;102416.72;;;3.38;100.00
65173;BME280;51758;52.218;5.172;2023-02-28T03:24:53;102380.94;;;3.32;100.00
65173;BME280;51758;52.218;5.172;2023-02-28T03:27:27;102397.34;;;3.45;100.00
65173;BME280;51758;52.218;5.172;2023-02-28T03:30:00;102394.97;;;3.42;100.00
65173;BME280;51758;52.218;5.172;2023-02-28T03:32:33;102407.38;;;3.49;100.00
65173;BME280;51758;52.218;5.172;2023-02-28T03:35:07;102406.66;;;3.47;100.00
65173;BME280;51758;52.218;5.172;2023-02-28T03:37:40;102411.63;;;3.50;100.00
65173;BME280;51758;52.218;5.172;2023-02-28T03:40:12;102417.63;;;3.51;100.00
65173;BME280;51758;52.218;5.172;2023-02-28T03:42:44;101878.66;;;-0.01;100.00
65173;BME280;51758;52.218;5.172;2023-02-28T03:45:16;102411.72;;;3.49;100.00
65173;BME280;51758;52.218;5.172;2023-02-28T03:47:50;102418.00;;;3.45;100.00
65173;BME280;51758;52.218;5.172;2023-02-28T03:50:21;102422.31;;;3.44;100.00
65173;BME280;51758;52.218;5.172;2023-02-28T03:52:57;102429.06;;;3.47;100.00
65173;BME280;51758;52.218;5.172;2023-02-28T03:55:32;102427.50;;;3.44;100.00
65173;BME280;51758;52.218;5.172;2023-02-28T03:58:06;102424.28;;;3.41;100.00
65173;BME280;51758;52.218;5.172;2023-02-28T04:00:37;102426.75;;;3.42;100.00
65173;BME280;51758;52.218;5.172;2023-02-28T04:03:06;102418.72;;;3.33;100.00
65173;BME280;51758;52.218;5.172;2023-02-28T04:05:46;102427.78;;;3.26;100.00
65173;BME280;51758;52.218;5.172;2023-02-28T04:08:16;102399.22;;;3.14;100.00
65173;BME280;51758;52.218;5.172;2023-02-28T04:10:48;102332.84;;;2.88;100.00
65173;BME280;51758;52.218;5.172;2023-02-28T04:13:17;102393.31;;;3.27;100.00
65173;BME280;51758;52.218;5.172;2023-02-28T04:15:45;102370.53;;;3.19;100.00
65173;BME280;51758;52.218;5.172;2023-02-28T04:18:13;102372.34;;;3.31;100.00
65173;BME280;51758;52.218;5.172;2023-02-28T04:20:41;102364.81;;;3.28;100.00
65173;BME280;51758;52.218;5.172;2023-02-28T04:23:08;102361.19;;;3.31;100.00
65173;BME280;51758;52.218;5.172;2023-02-28T04:25:37;102352.94;;;3.11;100.00
65173;BME280;51758;52.218;5.172;2023-02-28T04:28:07;102312.94;;;3.04;100.00
65173;BME280;51758;52.218;5.172;2023-02-28T04:30:34;102313.88;;;3.03;100.00
65173;BME280;51758;52.218;5.172;2023-02-28T04:33:02;102293.66;;;3.10;100.00
65173;BME280;51758;52.218;5.172;2023-02-28T04:35:30;102269.44;;;2.98;100.00
65173;BME280;51758;52.218;5.172;2023-02-28T04:37:58;102299.75;;;3.09;100.00
65173;BME280;51758;52.218;5.172;2023-02-28T04:40:26;102287.50;;;3.12;100.00
65173;BME280;51758;52.218;5.172;2023-02-28T04:42:55;102293.03;;;3.06;100.00
65173;BME280;51758;52.218;5.172;2023-02-28T04:45:22;102283.91;;;3.15;100.00
65173;BME280;51758;52.218;5.172;2023-02-28T04:47:50;102286.94;;;3.07;100.00
65173;BME280;51758;52.218;5.172;2023-02-28T04:50:18;102288.78;;;3.05;100.00
65173;BME280;51758;52.218;5.172;2023-02-28T04:52:46;102289.91;;;3.01;100.00
65173;BME280;51758;52.218;5.172;2023-02-28T04:55:13;102286.25;;;2.91;100.00
65173;BME280;51758;52.218;5.172;2023-02-28T04:57:41;102303.00;;;2.98;100.00
65173;BME280;51758;52.218;5.172;2023-02-28T05:00:12;102289.91;;;3.01;100.00
65173;BME280;51758;52.218;5.172;2023-02-28T05:02:43;102303.72;;;3.00;100.00
65173;BME280;51758;52.218;5.172;2023-02-28T05:05:10;102269.09;;;2.76;100.00
65173;BME280;51758;52.218;5.172;2023-02-28T05:07:42;102318.38;;;3.00;100.00
65173;BME280;51758;52.218;5.172;2023-02-28T05:10:11;102246.53;;;1.93;100.00
65173;BME280;51758;52.218;5.172;2023-02-28T05:12:39;102343.47;;;2.39;100.00
65173;BME280;51758;52.218;5.172;2023-02-28T05:15:09;102291.47;;;2.17;100.00
65173;BME280;51758;52.218;5.172;2023-02-28T05:17:41;102315.72;;;2.14;100.00
65173;BME280;51758;52.218;5.172;2023-02-28T05:20:10;102356.91;;;2.44;100.00
65173;BME280;51758;52.218;5.172;2023-02-28T05:22:41;102394.06;;;2.26;100.00
65173;BME280;51758;52.218;5.172;2023-02-28T05:25:10;102404.53;;;2.07;100.00
65173;BME280;51758;52.218;5.172;2023-02-28T05:27:39;102424.75;;;2.15;100.00
65173;BME280;51758;52.218;5.172;2023-02-28T05:30:08;102433.88;;;2.05;100.00
65173;BME280;51758;52.218;5.172;2023-02-28T05:32:37;102447.94;;;2.15;100.00
65173;BME280;51758;52.218;5.172;2023-02-28T05:35:07;102464.03;;;2.03;100.00
65173;BME280;51758;52.218;5.172;2023-02-28T05:37:35;102470.13;;;2.02;100.00
65173;BME280;51758;52.218;5.172;2023-02-28T05:40:03;102454.22;;;1.62;100.00
65173;BME280;51758;52.218;5.172;2023-02-28T05:42:32;102501.59;;;1.91;100.00
65173;BME280;51758;52.218;5.172;2023-02-28T05:45:00;102535.41;;;1.85;100.00
65173;BME280;51758;52.218;5.172;2023-02-28T05:47:28;102549.63;;;1.76;100.00
65173;BME280;51758;52.218;5.172;2023-02-28T05:49:55;102528.91;;;1.78;100.00
65173;BME280;51758;52.218;5.172;2023-02-28T05:52:25;102569.81;;;1.84;100.00
65173;BME280;51758;52.218;5.172;2023-02-28T05:54:52;102578.44;;;1.83;100.00
65173;BME280;51758;52.218;5.172;2023-02-28T05:57:21;102582.34;;;1.90;100.00
65173;BME280;51758;52.218;5.172;2023-02-28T05:59:50;102575.66;;;1.70;100.00
65173;BME280;51758;52.218;5.172;2023-02-28T06:02:18;102577.41;;;2.03;100.00
65173;BME280;51758;52.218;5.172;2023-02-28T06:04:45;102601.78;;;1.80;100.00
65173;BME280;51758;52.218;5.172;2023-02-28T06:07:13;102597.91;;;1.89;100.00
65173;BME280;51758;52.218;5.172;2023-02-28T06:09:42;102609.91;;;1.72;100.00
65173;BME280;51758;52.218;5.172;2023-02-28T06:12:10;102594.47;;;1.55;100.00
65173;BME280;51758;52.218;5.172;2023-02-28T06:14:38;102599.75;;;1.69;100.00
65173;BME280;51758;52.218;5.172;2023-02-28T06:17:06;102593.25;;;1.62;100.00
65173;BME280;51758;52.218;5.172;2023-02-28T06:19:33;102573.78;;;1.57;100.00
65173;BME280;51758;52.218;5.172;2023-02-28T06:22:03;102485.06;;;0.96;100.00
65173;BME280;51758;52.218;5.172;2023-02-28T06:24:30;102501.28;;;1.49;100.00
65173;BME280;51758;52.218;5.172;2023-02-28T06:27:00;102480.25;;;1.40;100.00
65173;BME280;51758;52.218;5.172;2023-02-28T06:29:31;102454.84;;;1.17;100.00
65173;BME280;51758;52.218;5.172;2023-02-28T06:31:59;102415.81;;;1.26;100.00
65173;BME280;51758;52.218;5.172;2023-02-28T06:34:27;102329.94;;;0.96;100.00
65173;BME280;51758;52.218;5.172;2023-02-28T06:36:54;102300.06;;;0.93;100.00
65173;BME280;51758;52.218;5.172;2023-02-28T06:39:22;102256.56;;;0.73;100.00
65173;BME280;51758;52.218;5.172;2023-02-28T06:41:50;102300.50;;;1.17;100.00
65173;BME280;51758;52.218;5.172;2023-02-28T06:44:23;102273.19;;;1.15;100.00
65173;BME280;51758;52.218;5.172;2023-02-28T06:46:51;102242.00;;;1.21;100.00
65173;BME280;51758;52.218;5.172;2023-02-28T06:49:19;102216.88;;;1.26;100.00
65173;BME280;51758;52.218;5.172;2023-02-28T06:51:47;102196.28;;;1.26;100.00
65173;BME280;51758;52.218;5.172;2023-02-28T06:54:14;102165.41;;;1.26;100.00
65173;BME280;51758;52.218;5.172;2023-02-28T06:56:42;102135.94;;;1.16;100.00
65173;BME280;51758;52.218;5.172;2023-02-28T06:59:10;102110.19;;;1.31;100.00
65173;BME280;51758;52.218;5.172;2023-02-28T07:01:39;102043.78;;;1.08;100.00
65173;BME280;51758;52.218;5.172;2023-02-28T07:04:07;102076.66;;;1.33;100.00
65173;BME280;51758;52.218;5.172;2023-02-28T07:06:35;102063.59;;;1.22;100.00
65173;BME280;51758;52.218;5.172;2023-02-28T07:09:03;101978.28;;;0.99;100.00
65173;BME280;51758;52.218;5.172;2023-02-28T07:11:31;101972.34;;;1.13;100.00
65173;BME280;51758;52.218;5.172;2023-02-28T07:13:59;102021.25;;;1.56;100.00
65173;BME280;51758;52.218;5.172;2023-02-28T07:16:27;102002.97;;;1.60;100.00
65173;BME280;51758;52.218;5.172;2023-02-28T07:18:56;101952.88;;;1.23;100.00
65173;BME280;51758;52.218;5.172;2023-02-28T07:21:24;102002.97;;;1.60;100.00
65173;BME280;51758;52.218;5.172;2023-02-28T07:23:52;101997.94;;;1.73;100.00
65173;BME280;51758;52.218;5.172;2023-02-28T07:26:20;101994.03;;;1.80;100.00
65173;BME280;51758;52.218;5.172;2023-02-28T07:28:48;101998.94;;;1.85;100.00
65173;BME280;51758;52.218;5.172;2023-02-28T07:31:16;101970.06;;;1.65;100.00
65173;BME280;51758;52.218;5.172;2023-02-28T07:33:45;101987.78;;;1.98;100.00
65173;BME280;51758;52.218;5.172;2023-02-28T07:36:15;102004.50;;;2.05;100.00
65173;BME280;51758;52.218;5.172;2023-02-28T07:38:46;102003.13;;;2.14;100.00
65173;BME280;51758;52.218;5.172;2023-02-28T07:41:17;101990.13;;;2.15;100.00
65173;BME280;51758;52.218;5.172;2023-02-28T07:43:46;101982.13;;;2.20;100.00
65173;BME280;51758;52.218;5.172;2023-02-28T07:46:15;102004.34;;;2.35;100.00
65173;BME280;51758;52.218;5.172;2023-02-28T07:48:44;102024.63;;;2.27;100.00
65173;BME280;51758;52.218;5.172;2023-02-28T07:51:13;101946.91;;;2.06;100.00
65173;BME280;51758;52.218;5.172;2023-02-28T07:53:41;102010.53;;;2.60;100.00
65173;BME280;51758;52.218;5.172;2023-02-28T07:56:09;102014.47;;;2.65;100.00
65173;BME280;51758;52.218;5.172;2023-02-28T07:58:37;102034.69;;;2.71;100.00
65173;BME280;51758;52.218;5.172;2023-02-28T08:01:06;102018.03;;;2.77;100.00
65173;BME280;51758;52.218;5.172;2023-02-28T08:03:34;102019.47;;;2.81;100.00
65173;BME280;51758;52.218;5.172;2023-02-28T08:06:02;102011.41;;;2.73;100.00
65173;BME280;51758;52.218;5.172;2023-02-28T08:08:31;102027.75;;;2.86;100.00
65173;BME280;51758;52.218;5.172;2023-02-28T08:11:00;102017.38;;;2.73;100.00
65173;BME280;51758;52.218;5.172;2023-02-28T08:13:29;101993.22;;;2.62;100.00
65173;BME280;51758;52.218;5.172;2023-02-28T08:15:56;102017.34;;;3.00;100.00
65173;BME280;51758;52.218;5.172;2023-02-28T08:18:24;102009.88;;;2.83;100.00
65173;BME280;51758;52.218;5.172;2023-02-28T08:20:52;102006.19;;;2.87;100.00
65173;BME280;51758;52.218;5.172;2023-02-28T08:23:20;102021.78;;;2.98;100.00
65173;BME280;51758;52.218;5.172;2023-02-28T08:25:54;102032.09;;;2.98;100.00
65173;BME280;51758;52.218;5.172;2023-02-28T08:28:22;102030.91;;;2.77;100.00
65173;BME280;51758;52.218;5.172;2023-02-28T08:30:53;102038.88;;;2.86;100.00
65173;BME280;51758;52.218;5.172;2023-02-28T08:33:21;102017.88;;;2.66;100.00
65173;BME280;51758;52.218;5.172;2023-02-28T08:35:52;102031.00;;;2.48;100.00
65173;BME280;51758;52.218;5.172;2023-02-28T08:38:21;102017.56;;;2.70;100.00
65173;BME280;51758;52.218;5.172;2023-02-28T08:40:49;102011.34;;;2.87;100.00
65173;BME280;51758;52.218;5.172;2023-02-28T08:43:18;102014.44;;;2.92;100.00
65173;BME280;51758;52.218;5.172;2023-02-28T08:45:46;101992.19;;;3.04;100.00
65173;BME280;51758;52.218;5.172;2023-02-28T08:48:13;101993.94;;;3.16;100.00
65173;BME280;51758;52.218;5.172;2023-02-28T08:50:45;101993.97;;;3.29;100.00
65173;BME280;51758;52.218;5.172;2023-02-28T08:53:30;101958.22;;;3.22;100.00
65173;BME280;51758;52.218;5.172;2023-02-28T08:55:59;101997.66;;;3.24;100.00
65173;BME280;51758;52.218;5.172;2023-02-28T08:58:28;101998.69;;;3.09;100.00
65173;BME280;51758;52.218;5.172;2023-02-28T09:00:56;101964.84;;;3.39;100.00
65173;BME280;51758;52.218;5.172;2023-02-28T09:03:24;101974.84;;;3.44;100.00
65173;BME280;51758;52.218;5.172;2023-02-28T09:05:57;101991.88;;;3.34;100.00
65173;BME280;51758;52.218;5.172;2023-02-28T09:08:27;101870.84;;;2.28;100.00
65173;BME280;51758;52.218;5.172;2023-02-28T09:10:56;102001.47;;;3.19;100.00
65173;BME280;51758;52.218;5.172;2023-02-28T09:13:27;101993.00;;;3.42;100.00
65173;BME280;51758;52.218;5.172;2023-02-28T09:15:58;101996.75;;;3.38;100.00
65173;BME280;51758;52.218;5.172;2023-02-28T09:18:26;102007.38;;;3.34;100.00
65173;BME280;51758;52.218;5.172;2023-02-28T09:20:54;102062.16;;;3.12;100.00
65173;BME280;51758;52.218;5.172;2023-02-28T09:23:21;102058.56;;;3.14;100.00
65173;BME280;51758;52.218;5.172;2023-02-28T09:25:50;102041.53;;;3.24;100.00
65173;BME280;51758;52.218;5.172;2023-02-28T09:28:19;102075.19;;;3.23;100.00
65173;BME280;51758;52.218;5.172;2023-02-28T09:30:51;102097.06;;;3.17;100.00
65173;BME280;51758;52.218;5.172;2023-02-28T09:33:20;102146.16;;;3.03;100.00
65173;BME280;51758;52.218;5.172;2023-02-28T09:35:49;102196.56;;;2.95;100.00
65173;BME280;51758;52.218;5.172;2023-02-28T09:38:17;102216.22;;;3.24;100.00
65173;BME280;51758;52.218;5.172;2023-02-28T09:40:48;102246.41;;;3.09;100.00
65173;BME280;51758;52.218;5.172;2023-02-28T09:43:20;102259.69;;;3.30;100.00
65173;BME280;51758;52.218;5.172;2023-02-28T09:45:53;102218.09;;;3.08;100.00
65173;BME280;51758;52.218;5.172;2023-02-28T09:48:28;102281.69;;;2.66;100.00
65173;BME280;51758;52.218;5.172;2023-02-28T09:51:00;102318.81;;;3.20;100.00
65173;BME280;51758;52.218;5.172;2023-02-28T09:53:31;102374.22;;;3.15;100.00
65173;BME280;51758;52.218;5.172;2023-02-28T09:56:04;102400.00;;;3.43;100.00
65173;BME280;51758;52.218;5.172;2023-02-28T09:58:37;102450.44;;;3.35;100.00
65173;BME280;51758;52.218;5.172;2023-02-28T10:01:12;102497.38;;;3.55;100.00
65173;BME280;51758;52.218;5.172;2023-02-28T10:03:51;102538.44;;;3.60;100.00
65173;BME280;51758;52.218;5.172;2023-02-28T10:06:27;102576.28;;;3.75;100.00
65173;BME280;51758;52.218;5.172;2023-02-28T10:09:00;102636.84;;;3.41;100.00
65173;BME280;51758;52.218;5.172;2023-02-28T10:11:29;102561.19;;;3.25;100.00
65173;BME280;51758;52.218;5.172;2023-02-28T10:14:01;102644.94;;;3.93;100.00
65173;BME280;51758;52.218;5.172;2023-02-28T10:16:37;102682.69;;;3.96;100.00
65173;BME280;51758;52.218;5.172;2023-02-28T10:19:14;102700.00;;;4.24;100.00
65173;BME280;51758;52.218;5.172;2023-02-28T10:21:46;102647.44;;;4.09;100.00
65173;BME280;51758;52.218;5.172;2023-02-28T10:24:20;102757.44;;;4.29;100.00
65173;BME280;51758;52.218;5.172;2023-02-28T10:26:52;102752.75;;;4.64;100.00
65173;BME280;51758;52.218;5.172;2023-02-28T10:29:23;102744.09;;;5.06;100.00
65173;BME280;51758;52.218;5.172;2023-02-28T10:31:52;102804.41;;;4.80;100.00
65173;BME280;51758;52.218;5.172;2023-02-28T10:34:20;102836.56;;;4.76;100.00
65173;BME280;51758;52.218;5.172;2023-02-28T10:36:49;102870.84;;;4.65;100.00
65173;BME280;51758;52.218;5.172;2023-02-28T10:39:35;102864.38;;;5.15;100.00
65173;BME280;51758;52.218;5.172;2023-02-28T10:42:04;102899.50;;;4.90;100.00
65173;BME280;51758;52.218;5.172;2023-02-28T10:44:33;102922.22;;;4.71;100.00
65173;BME280;51758;52.218;5.172;2023-02-28T10:47:02;102906.25;;;5.07;100.00
65173;BME280;51758;52.218;5.172;2023-02-28T10:49:30;103014.44;;;4.26;100.00
65173;BME280;51758;52.218;5.172;2023-02-28T10:52:00;103024.94;;;4.55;100.00
65173;BME280;51758;52.218;5.172;2023-02-28T10:54:31;103020.28;;;4.76;100.00
65173;BME280;51758;52.218;5.172;2023-02-28T10:57:17;102967.06;;;4.86;100.00
65173;BME280;51758;52.218;5.172;2023-02-28T10:59:45;103014.88;;;5.38;100.00
65173;BME280;51758;52.218;5.172;2023-02-28T11:02:30;103041.81;;;5.50;100.00
65173;BME280;51758;52.218;5.172;2023-02-28T11:05:00;103031.41;;;6.21;100.00
65173;BME280;51758;52.218;5.172;2023-02-28T11:07:28;103015.88;;;6.88;100.00
65173;BME280;51758;52.218;5.172;2023-02-28T11:10:18;102891.28;;;6.48;100.00
65173;BME280;51758;52.218;5.172;2023-02-28T11:12:47;103057.19;;;7.55;100.00
65173;BME280;51758;52.218;5.172;2023-02-28T11:15:23;103084.31;;;7.77;100.00
65173;BME280;51758;52.218;5.172;2023-02-28T11:17:58;103025.25;;;7.79;100.00
65173;BME280;51758;52.218;5.172;2023-02-28T11:20:28;103085.75;;;8.06;100.00
65173;BME280;51758;52.218;5.172;2023-02-28T11:22:58;103094.75;;;9.10;100.00
65173;BME280;51758;52.218;5.172;2023-02-28T11:25:29;103072.00;;;8.77;96.64
65173;BME280;51758;52.218;5.172;2023-02-28T11:27:59;103089.38;;;8.53;98.75
65173;BME280;51758;52.218;5.172;2023-02-28T11:30:34;103093.09;;;8.12;100.00
65173;BME280;51758;52.218;5.172;2023-02-28T11:33:20;103092.09;;;7.39;100.00
65173;BME280;51758;52.218;5.172;2023-02-28T11:35:50;103093.06;;;7.63;100.00
65173;BME280;51758;52.218;5.172;2023-02-28T11:38:19;103093.13;;;9.31;99.71
65173;BME280;51758;52.218;5.172;2023-02-28T11:40:54;103053.00;;;8.64;89.31
65173;BME280;51758;52.218;5.172;2023-02-28T11:43:37;103064.81;;;10.50;100.00
65173;BME280;51758;52.218;5.172;2023-02-28T11:46:20;103091.50;;;11.89;89.86
65173;BME280;51758;52.218;5.172;2023-02-28T11:49:02;103103.97;;;11.76;71.40
65173;BME280;51758;52.218;5.172;2023-02-28T11:51:44;103117.28;;;9.91;72.85
65173;BME280;51758;52.218;5.172;2023-02-28T11:54:26;103065.91;;;11.00;92.57
65173;BME280;51758;52.218;5.172;2023-02-28T11:56:58;103105.16;;;11.72;71.79
65173;BME280;51758;52.218;5.172;2023-02-28T11:59:44;103103.25;;;13.12;62.39
65173;BME280;51758;52.218;5.172;2023-02-28T12:02:24;102982.44;;;12.47;62.43
65173;BME280;51758;52.218;5.172;2023-02-28T12:05:05;103093.72;;;12.03;55.92
65173;BME280;51758;52.218;5.172;2023-02-28T12:07:46;103100.44;;;12.27;51.26
65173;BME280;51758;52.218;5.172;2023-02-28T12:10:21;103109.28;;;12.54;50.62
65173;BME280;51758;52.218;5.172;2023-02-28T12:12:58;103107.09;;;12.40;55.14
65173;BME280;51758;52.218;5.172;2023-02-28T12:16:00;103099.09;;;13.09;48.72
65173;BME280;51758;52.218;5.172;2023-02-28T12:21:36;103094.28;;;13.71;46.33
65173;BME280;51758;52.218;5.172;2023-02-28T12:24:22;103051.31;;;13.35;46.79
65173;BME280;51758;52.218;5.172;2023-02-28T12:26:54;103084.16;;;14.13;43.47
65173;BME280;51758;52.218;5.172;2023-02-28T12:29:27;103094.09;;;13.45;50.22
65173;BME280;51758;52.218;5.172;2023-02-28T12:32:01;103081.16;;;13.71;49.58
65173;BME280;51758;52.218;5.172;2023-02-28T12:34:36;103087.50;;;13.31;43.72
65173;BME280;51758;52.218;5.172;2023-02-28T12:37:10;103079.09;;;12.50;48.99
65173;BME280;51758;52.218;5.172;2023-02-28T12:39:44;102989.28;;;12.87;49.41
65173;BME280;51758;52.218;5.172;2023-02-28T12:42:19;103073.38;;;14.33;43.42
65173;BME280;51758;52.218;5.172;2023-02-28T12:44:55;103062.56;;;15.59;45.57
65173;BME280;51758;52.218;5.172;2023-02-28T12:47:24;102972.84;;;13.69;41.32
65173;BME280;51758;52.218;5.172;2023-02-28T12:49:55;103071.78;;;13.95;39.46
65173;BME280;51758;52.218;5.172;2023-02-28T12:52:33;103071.75;;;15.89;42.54
65173;BME280;51758;52.218;5.172;2023-02-28T12:55:05;103071.88;;;14.31;42.41
65173;BME280;51758;52.218;5.172;2023-02-28T12:57:39;103065.53;;;15.13;40.03
65173;BME280;51758;52.218;5.172;2023-02-28T13:00:12;103072.06;;;14.83;49.00
65173;BME280;51758;52.218;5.172;2023-02-28T13:02:55;103067.34;;;15.56;37.94
65173;BME280;51758;52.218;5.172;2023-02-28T13:05:49;103069.13;;;14.86;38.76
65173;BME280;51758;52.218;5.172;2023-02-28T13:09:00;103070.00;;;11.95;41.16
65173;BME280;51758;52.218;5.172;2023-02-28T13:11:31;103064.16;;;13.75;38.92
65173;BME280;51758;52.218;5.172;2023-02-28T13:14:02;103050.16;;;14.11;40.87
65173;BME280;51758;52.218;5.172;2023-02-28T13:16:58;103048.44;;;14.38;38.92
65173;BME280;51758;52.218;5.172;2023-02-28T13:19:29;103054.56;;;14.91;39.37